Time;durP1;ratioP1;P1;durP2;ratioP2;P2;SDS_P1;SDS_P2;PMS_P1;PMS_P2;Temp;Humidity;BMP_temperature;BMP_pressure;BME280_temperature;BME280_humidity;BME280_pressure;Samples;Min_cycle;Max_cycle;Signal;HPM_P1;HPM_P2
2022/01/17 00:00:13;;;;;;;28.93;4.63;;;5.70;86.10;;;;;;4974055;28;20207;-94
2022/01/17 00:02:40;;;;;;;26.10;5.20;;;5.70;85.40;;;;;;4974288;28;20175;-93
2022/01/17 00:05:10;;;;;;;22.10;4.83;;;5.70;85.90;;;;;;4973731;28;20339;-92
2022/01/17 00:07:36;;;;;;;19.17;3.83;;;5.70;85.50;;;;;;4973356;28;20182;-92
2022/01/17 00:10:04;;;;;;;20.00;3.93;;;5.80;85.00;;;;;;4973196;28;20637;-92
2022/01/17 00:12:33;;;;;;;16.97;3.63;;;5.70;85.60;;;;;;4974069;28;20184;-91
2022/01/17 00:14:59;;;;;;;19.27;4.07;;;5.70;85.60;;;;;;4973442;28;20205;-90
2022/01/17 00:17:33;;;;;;;21.13;4.27;;;5.70;85.70;;;;;;4973125;28;20675;-91
2022/01/17 00:20:08;;;;;;;21.03;4.80;;;5.80;85.30;;;;;;4973338;28;20249;-90
2022/01/17 00:22:34;;;;;;;31.03;4.63;;;5.80;85.40;;;;;;4973120;28;20199;-91
2022/01/17 00:25:00;;;;;;;20.53;4.37;;;5.80;85.00;;;;;;4973572;28;20209;-89
2022/01/17 00:27:31;;;;;;;17.37;4.43;;;5.80;85.20;;;;;;4973079;28;20188;-89
2022/01/17 00:29:56;;;;;;;21.03;4.17;;;5.80;85.70;;;;;;4973128;28;20187;-91
2022/01/17 00:32:22;;;;;;;27.33;4.63;;;5.80;85.40;;;;;;4973260;28;20568;-91
2022/01/17 00:34:48;;;;;;;31.97;6.97;;;5.80;85.50;;;;;;4973054;28;20213;-91
2022/01/17 00:37:16;;;;;;;24.37;4.57;;;5.80;85.10;;;;;;4973485;28;20214;-92
2022/01/17 00:39:42;;;;;;;24.37;4.23;;;5.80;85.40;;;;;;4972851;28;20239;-89
2022/01/17 00:42:08;;;;;;;30.33;5.00;;;5.80;85.60;;;;;;4974174;28;20176;-91
2022/01/17 00:44:33;;;;;;;29.27;4.63;;;5.80;85.20;;;;;;4972869;28;20205;-91
2022/01/17 00:47:00;;;;;;;27.50;4.63;;;5.90;84.60;;;;;;4974292;28;20180;-92
2022/01/17 00:49:26;;;;;;;14.47;2.50;;;5.90;84.60;;;;;;4973222;28;20184;-92
2022/01/17 00:51:52;;;;;;;23.23;4.07;;;6.00;84.10;;;;;;4972958;28;20191;-91
2022/01/17 00:54:18;;;;;;;29.57;4.03;;;6.10;83.90;;;;;;4973012;28;20633;-91
2022/01/17 00:56:44;;;;;;;22.13;4.03;;;6.00;83.80;;;;;;4974119;28;20274;-91
2022/01/17 00:59:10;;;;;;;20.13;3.97;;;6.00;84.10;;;;;;4976530;28;20270;-91
2022/01/17 01:01:36;;;;;;;20.93;4.07;;;6.00;84.30;;;;;;4976526;28;20179;-91
2022/01/17 01:04:01;;;;;;;15.20;3.30;;;6.00;84.50;;;;;;4976178;28;20237;-92
2022/01/17 01:06:27;;;;;;;13.53;3.80;;;6.00;84.50;;;;;;4976420;28;20225;-91
2022/01/17 01:08:53;;;;;;;21.47;3.67;;;6.10;83.90;;;;;;4977166;28;20650;-91
2022/01/17 01:11:18;;;;;;;14.90;3.70;;;6.30;83.20;;;;;;4976228;28;20186;-91
2022/01/17 01:13:44;;;;;;;24.57;4.57;;;6.20;83.30;;;;;;4976089;28;20679;-91
2022/01/17 01:29:14;;;;;;;31.93;4.93;;;6.20;83.80;;;;;;4977544;28;20177;-91
2022/01/17 01:31:52;;;;;;;16.33;3.13;;;6.20;83.80;;;;;;4975757;28;20179;-91
2022/01/17 01:34:26;;;;;;;25.03;4.87;;;6.20;83.90;;;;;;4975938;28;20202;-92
2022/01/17 01:36:51;;;;;;;26.77;4.83;;;6.10;84.40;;;;;;4976521;28;20186;-91
2022/01/17 01:39:22;;;;;;;17.67;4.80;;;6.10;84.20;;;;;;4976233;28;20538;-91
2022/01/17 01:41:48;;;;;;;19.53;4.20;;;6.20;83.90;;;;;;4975688;28;20173;-91
2022/01/17 01:44:17;;;;;;;19.43;4.90;;;6.20;84.00;;;;;;4975793;28;20205;-91
2022/01/17 01:46:43;;;;;;;22.00;4.83;;;6.20;84.30;;;;;;4975397;28;20634;-91
2022/01/17 01:49:10;;;;;;;22.00;4.70;;;6.10;84.60;;;;;;4976594;28;20293;-91
2022/01/17 01:51:36;;;;;;;18.37;4.10;;;6.20;84.70;;;;;;4976529;28;20249;-91
2022/01/17 01:54:02;;;;;;;22.60;4.80;;;6.20;84.70;;;;;;4975441;28;20647;-91
2022/01/17 01:56:28;;;;;;;26.20;5.17;;;6.30;84.10;;;;;;4975147;28;20178;-92
2022/01/17 01:58:54;;;;;;;31.03;4.77;;;6.30;84.30;;;;;;4975640;28;20550;-91
2022/01/17 02:01:19;;;;;;;19.00;4.00;;;6.20;84.80;;;;;;4975588;28;20707;-91
2022/01/17 02:03:45;;;;;;;16.37;4.37;;;6.20;84.80;;;;;;4975349;28;20233;-91
2022/01/17 02:06:11;;;;;;;17.53;3.10;;;6.20;84.90;;;;;;4975132;28;20196;-91
2022/01/17 02:08:36;;;;;;;23.67;4.90;;;6.20;84.60;;;;;;4974852;28;20655;-91
2022/01/17 02:11:03;;;;;;;25.10;3.73;;;6.20;84.90;;;;;;4975079;28;20185;-91
2022/01/17 02:13:29;;;;;;;24.63;5.17;;;6.20;85.00;;;;;;4976220;28;20194;-91
2022/01/17 02:16:03;;;;;;;21.50;5.53;;;6.20;85.30;;;;;;4975054;28;20182;-91
2022/01/17 02:18:30;;;;;;;28.87;6.33;;;6.20;85.30;;;;;;4975701;28;20240;-91
2022/01/17 02:23:35;;;;;;;17.60;4.63;;;6.30;85.40;;;;;;4976020;28;20267;-91
2022/01/17 02:26:01;;;;;;;13.93;3.30;;;6.30;84.80;;;;;;4975087;28;20178;-92
2022/01/17 02:28:28;;;;;;;17.80;3.83;;;6.50;83.90;;;;;;4975538;28;20185;-91
2022/01/17 02:30:53;;;;;;;15.37;3.97;;;6.40;84.50;;;;;;4974878;28;20178;-91
2022/01/17 02:33:20;;;;;;;18.33;3.40;;;6.30;84.80;;;;;;4974744;28;20189;-91
2022/01/17 02:35:49;;;;;;;11.37;3.73;;;6.40;84.60;;;;;;4975511;28;20272;-91
2022/01/17 02:38:15;;;;;;;19.00;3.77;;;6.50;84.20;;;;;;4974570;28;20212;-92
2022/01/17 02:40:41;;;;;;;19.30;5.00;;;6.50;84.50;;;;;;4974550;28;20174;-91
2022/01/17 02:43:09;;;;;;;16.47;4.03;;;6.50;84.20;;;;;;4974543;28;20644;-91
2022/01/17 02:46:24;;;;;;;15.57;3.63;;;6.50;84.30;;;;;;4974696;28;20273;-91
2022/01/17 02:48:26;;;;;;;21.43;4.53;;;6.50;84.20;;;;;;4975565;28;20269;-92
2022/01/17 02:50:52;;;;;;;24.60;5.10;;;6.60;84.00;;;;;;4974598;28;20202;-92
2022/01/17 02:53:18;;;;;;;4.23;1.87;;;6.50;84.60;;;;;;4974298;28;20181;-91
2022/01/17 02:55:50;;;;;;;21.97;4.70;;;6.40;85.00;;;;;;4974325;28;20183;-91
2022/01/17 02:58:19;;;;;;;18.17;3.67;;;6.40;85.00;;;;;;4974286;28;20211;-92
2022/01/17 03:00:45;;;;;;;23.67;3.90;;;6.40;85.00;;;;;;4974156;28;20246;-92
2022/01/17 03:03:19;;;;;;;29.60;5.57;;;6.40;85.30;;;;;;4974066;28;20221;-92
2022/01/17 03:05:45;;;;;;;20.67;4.00;;;6.40;85.50;;;;;;4974095;28;20184;-91
2022/01/17 03:08:11;;;;;;;28.93;4.97;;;6.40;85.40;;;;;;4973978;28;20269;-92
2022/01/17 03:13:05;;;;;;;25.03;3.43;;;6.40;85.70;;;;;;4975581;28;20178;-91
2022/01/17 03:15:31;;;;;;;25.70;5.53;;;6.30;85.80;;;;;;4974056;28;20194;-91
2022/01/17 03:17:56;;;;;;;15.77;3.53;;;6.30;85.90;;;;;;4973741;28;20206;-91
2022/01/17 03:20:22;;;;;;;24.43;4.17;;;6.40;85.80;;;;;;4973329;28;20330;-91
2022/01/17 03:22:48;;;;;;;26.93;5.20;;;6.40;85.70;;;;;;4973848;28;20191;-92
2022/01/17 03:25:13;;;;;;;27.30;4.63;;;6.30;85.70;;;;;;4973731;28;20229;-91
2022/01/17 03:27:39;;;;;;;28.67;4.63;;;6.40;85.60;;;;;;4973963;28;20183;-92
2022/01/17 03:30:06;;;;;;;24.57;4.67;;;6.30;86.00;;;;;;4973812;28;20183;-92
2022/01/17 03:32:31;;;;;;;32.43;4.90;;;6.30;86.00;;;;;;4973580;28;20208;-91
2022/01/17 03:34:57;;;;;;;20.30;4.10;;;6.40;85.80;;;;;;4973645;28;20229;-91
2022/01/17 03:37:23;;;;;;;34.67;5.50;;;6.40;85.80;;;;;;4973623;28;20205;-92
2022/01/17 03:39:50;;;;;;;28.37;4.70;;;6.40;85.90;;;;;;4973849;28;20620;-91
2022/01/17 03:42:18;;;;;;;27.93;4.77;;;6.40;86.00;;;;;;4973601;28;20186;-91
2022/01/17 03:44:44;;;;;;;17.00;4.30;;;6.40;86.10;;;;;;4974885;28;20191;-92
2022/01/17 03:47:11;;;;;;;25.77;4.47;;;6.40;85.90;;;;;;4973516;28;20198;-91
2022/01/17 03:49:36;;;;;;;21.70;4.50;;;6.50;85.60;;;;;;4973579;28;20185;-92
2022/01/17 03:52:03;;;;;;;24.47;4.13;;;6.40;85.80;;;;;;4973508;28;20186;-91
2022/01/17 03:54:28;;;;;;;23.10;5.17;;;6.40;86.00;;;;;;4973239;28;20216;-91
2022/01/17 03:56:54;;;;;;;14.30;3.90;;;6.40;86.10;;;;;;4973314;28;20186;-91
2022/01/17 03:59:20;;;;;;;21.17;6.07;;;6.40;85.90;;;;;;4974143;28;20183;-92
2022/01/17 04:01:46;;;;;;;20.87;4.47;;;6.40;86.00;;;;;;4973397;28;20206;-91
2022/01/17 04:04:11;;;;;;;15.77;3.73;;;6.50;86.00;;;;;;4973676;28;20555;-92
2022/01/17 04:06:37;;;;;;;15.53;3.53;;;6.50;85.60;;;;;;4973293;28;20540;-92
2022/01/17 04:09:03;;;;;;;26.63;3.77;;;6.60;85.60;;;;;;4973208;28;20214;-91
2022/01/17 04:11:28;;;;;;;23.07;5.03;;;6.50;85.90;;;;;;4973637;28;20190;-91
2022/01/17 04:13:54;;;;;;;21.97;4.00;;;6.50;86.00;;;;;;4973234;28;20202;-91
2022/01/17 04:16:19;;;;;;;31.70;4.90;;;6.50;86.10;;;;;;4973259;28;20188;-91
2022/01/17 04:18:45;;;;;;;24.27;4.80;;;6.50;86.20;;;;;;4973076;28;20737;-91
2022/01/17 04:21:11;;;;;;;25.23;5.03;;;6.50;86.40;;;;;;4973262;28;20181;-91
2022/01/17 04:23:37;;;;;;;29.67;4.97;;;6.50;86.20;;;;;;4972957;28;20218;-91
2022/01/17 04:26:03;;;;;;;25.97;4.73;;;6.60;86.10;;;;;;4973189;28;20190;-91
2022/01/17 04:28:29;;;;;;;27.13;4.70;;;6.60;86.40;;;;;;4973225;28;20179;-91
2022/01/17 04:30:54;;;;;;;19.23;4.47;;;6.60;86.20;;;;;;4975754;28;20237;-91
2022/01/17 04:33:20;;;;;;;21.77;4.60;;;6.60;86.40;;;;;;4976848;28;20191;-92
2022/01/17 04:35:46;;;;;;;17.20;4.30;;;6.60;86.50;;;;;;4976851;28;20179;-91
2022/01/17 04:38:15;;;;;;;29.80;7.83;;;6.60;86.60;;;;;;4976618;28;20304;-91
2022/01/17 04:40:44;;;;;;;18.40;4.07;;;6.60;86.80;;;;;;4977900;28;20169;-91
2022/01/17 04:45:45;;;;;;;27.43;4.80;;;6.70;86.80;;;;;;4978188;28;20167;-91
2022/01/17 04:48:11;;;;;;;19.07;4.90;;;6.60;87.20;;;;;;4976963;28;20185;-91
2022/01/17 04:50:37;;;;;;;24.43;5.83;;;6.60;87.30;;;;;;4976514;28;20647;-91
2022/01/17 04:53:03;;;;;;;20.20;5.23;;;6.70;87.10;;;;;;4977644;28;20175;-91
2022/01/17 04:55:29;;;;;;;10.53;2.63;;;6.70;87.20;;;;;;4976398;28;20206;-91
2022/01/17 04:57:56;;;;;;;20.43;4.70;;;6.70;87.20;;;;;;4976393;28;20206;-90
2022/01/17 05:00:23;;;;;;;26.23;6.10;;;6.70;87.40;;;;;;4976245;28;20190;-91
2022/01/17 05:02:49;;;;;;;34.30;5.90;;;6.80;87.10;;;;;;4976295;28;20182;-91
2022/01/17 05:05:16;;;;;;;34.37;5.30;;;6.80;87.20;;;;;;4976319;28;20226;-91
2022/01/17 05:07:43;;;;;;;17.93;4.33;;;6.80;87.10;;;;;;4977405;28;20218;-91
2022/01/17 05:10:11;;;;;;;15.83;4.10;;;6.80;87.30;;;;;;4976908;28;20178;-91
2022/01/17 05:12:37;;;;;;;18.90;4.47;;;6.80;87.40;;;;;;4976012;28;20190;-91
2022/01/17 05:15:17;;;;;;;19.60;4.30;;;6.70;87.60;;;;;;4976017;28;20205;-91
2022/01/17 05:17:58;;;;;;;32.47;5.70;;;6.80;87.80;;;;;;4975955;28;20213;-91
2022/01/17 05:20:24;;;;;;;32.07;7.27;;;6.80;87.70;;;;;;4976053;28;20171;-91
2022/01/17 05:22:50;;;;;;;32.13;5.77;;;6.80;87.80;;;;;;4976164;28;20244;-91
2022/01/17 05:25:16;;;;;;;29.47;4.90;;;6.80;87.60;;;;;;4975846;28;20614;-91
2022/01/17 05:27:41;;;;;;;33.93;5.73;;;6.80;87.90;;;;;;4976033;28;20193;-91
2022/01/17 05:30:11;;;;;;;26.97;4.87;;;6.90;87.70;;;;;;4975865;28;20321;-91
2022/01/17 05:32:37;;;;;;;23.47;5.30;;;6.80;87.90;;;;;;4975901;28;20189;-91
2022/01/17 05:35:03;;;;;;;28.63;5.13;;;6.90;87.70;;;;;;4975698;28;20202;-91
2022/01/17 05:37:29;;;;;;;28.30;4.97;;;7.00;87.60;;;;;;4975596;28;20212;-91
2022/01/17 05:39:55;;;;;;;29.30;5.23;;;6.90;87.70;;;;;;4975829;28;20246;-92
2022/01/17 05:42:21;;;;;;;24.77;5.57;;;7.00;87.60;;;;;;4974998;28;20182;-92
2022/01/17 05:44:47;;;;;;;35.30;5.43;;;7.00;87.80;;;;;;4976257;28;20198;-92
2022/01/17 05:47:14;;;;;;;15.97;3.43;;;7.00;87.80;;;;;;4975406;28;20639;-91
2022/01/17 05:49:39;;;;;;;19.10;3.60;;;7.00;87.70;;;;;;4975477;28;20591;-92
2022/01/17 05:52:06;;;;;;;25.77;5.77;;;7.10;87.70;;;;;;4976673;28;20186;-93
2022/01/17 05:54:31;;;;;;;26.53;4.20;;;7.10;87.60;;;;;;4975438;28;20205;-92
2022/01/17 05:56:57;;;;;;;34.10;6.13;;;7.10;87.70;;;;;;4975578;28;20181;-92
2022/01/17 05:59:23;;;;;;;13.47;3.50;;;7.10;87.80;;;;;;4975677;28;20600;-91
2022/01/17 06:01:48;;;;;;;32.57;5.90;;;7.10;88.10;;;;;;4975362;28;20673;-92
2022/01/17 06:04:14;;;;;;;20.20;5.50;;;7.10;88.10;;;;;;4975156;28;20229;-92
2022/01/17 06:06:40;;;;;;;32.73;6.50;;;7.10;87.90;;;;;;4975187;28;20174;-92
2022/01/17 06:09:05;;;;;;;27.60;4.60;;;7.20;88.00;;;;;;4974984;28;20225;-91
2022/01/17 06:11:33;;;;;;;18.83;4.83;;;7.30;87.70;;;;;;4975121;28;20182;-92
2022/01/17 06:13:59;;;;;;;20.13;5.23;;;7.30;87.70;;;;;;4975002;28;20205;-92
2022/01/17 06:16:26;;;;;;;20.23;4.37;;;7.30;87.90;;;;;;4975139;28;20635;-91
2022/01/17 06:18:51;;;;;;;33.47;5.63;;;7.30;88.10;;;;;;4974864;28;20214;-92
2022/01/17 06:21:17;;;;;;;16.20;4.23;;;7.20;88.60;;;;;;4975837;28;20170;-91
2022/01/17 06:23:42;;;;;;;23.77;5.67;;;7.10;89.40;;;;;;4974640;28;20234;-92
2022/01/17 06:26:08;;;;;;;36.30;6.37;;;7.10;90.00;;;;;;4974670;28;20178;-92
2022/01/17 06:28:34;;;;;;;47.60;7.40;;;7.00;90.40;;;;;;4974684;28;20615;-92
2022/01/17 06:30:59;;;;;;;31.43;6.00;;;7.00;90.70;;;;;;4974489;28;20229;-91
2022/01/17 06:33:25;;;;;;;27.03;6.23;;;7.00;90.70;;;;;;4974758;28;20335;-92
2022/01/17 06:35:51;;;;;;;26.13;4.70;;;7.00;90.70;;;;;;4974511;28;20643;-92
2022/01/17 06:38:17;;;;;;;35.33;6.13;;;7.00;90.70;;;;;;4975602;28;20226;-92
2022/01/17 06:40:42;;;;;;;38.93;6.30;;;7.10;90.50;;;;;;4974494;28;20183;-92
2022/01/17 06:43:10;;;;;;;23.43;4.77;;;7.10;90.30;;;;;;4974354;28;20269;-92
2022/01/17 06:45:36;;;;;;;20.67;6.33;;;7.20;90.00;;;;;;4975199;28;20703;-92
2022/01/17 06:48:05;;;;;;;25.87;5.67;;;7.20;90.10;;;;;;4975122;28;20187;-92
2022/01/17 06:50:31;;;;;;;26.83;4.83;;;7.20;90.20;;;;;;4974365;28;20182;-91
2022/01/17 06:52:57;;;;;;;26.97;5.50;;;7.20;90.40;;;;;;4975215;28;20191;-93
2022/01/17 06:55:23;;;;;;;26.33;5.10;;;7.20;90.70;;;;;;4973289;28;20675;-92
2022/01/17 06:57:48;;;;;;;21.50;5.03;;;7.30;90.60;;;;;;4974139;28;20289;-93
2022/01/17 07:00:15;;;;;;;34.10;5.93;;;7.20;90.80;;;;;;4974319;28;20706;-93
2022/01/17 07:02:41;;;;;;;36.43;5.90;;;7.30;90.70;;;;;;4974673;28;20179;-91
2022/01/17 07:05:07;;;;;;;32.17;6.13;;;7.20;90.70;;;;;;4974391;28;20194;-91
2022/01/17 07:07:33;;;;;;;40.67;6.73;;;7.30;90.80;;;;;;4973916;28;20175;-90
2022/01/17 07:09:58;;;;;;;41.43;6.73;;;7.30;90.40;;;;;;4975170;28;20185;-91
2022/01/17 07:12:24;;;;;;;24.63;5.53;;;7.40;90.30;;;;;;4973797;28;20230;-91
2022/01/17 07:14:50;;;;;;;26.67;6.17;;;7.40;90.30;;;;;;4975171;28;20195;-91
2022/01/17 07:17:15;;;;;;;34.20;7.40;;;7.40;90.60;;;;;;4974930;28;20175;-91
2022/01/17 07:19:41;;;;;;;23.97;5.27;;;7.40;90.60;;;;;;4975027;28;20221;-90
2022/01/17 07:22:08;;;;;;;36.27;6.20;;;7.40;91.10;;;;;;4973583;28;20190;-90
2022/01/17 07:24:34;;;;;;;32.67;6.63;;;7.40;91.10;;;;;;4974828;28;20194;-90
2022/01/17 07:27:00;;;;;;;40.90;5.77;;;7.30;91.10;;;;;;4973727;28;20262;-90
2022/01/17 07:29:26;;;;;;;25.77;5.40;;;7.40;90.90;;;;;;4973634;28;20270;-90
2022/01/17 07:31:53;;;;;;;23.33;5.53;;;7.40;90.90;;;;;;4974815;28;20635;-91
2022/01/17 07:34:19;;;;;;;41.97;6.87;;;7.40;91.20;;;;;;4973706;28;20194;-91
2022/01/17 07:36:44;;;;;;;32.70;6.83;;;7.40;91.60;;;;;;4973656;28;20170;-91
2022/01/17 07:39:10;;;;;;;22.00;5.10;;;7.40;92.00;;;;;;4973416;28;20214;-91
2022/01/17 07:41:37;;;;;;;43.67;7.30;;;7.30;92.20;;;;;;4973894;28;20605;-91
2022/01/17 07:44:04;;;;;;;34.50;5.63;;;7.30;92.40;;;;;;4973241;28;20554;-91
2022/01/17 07:46:47;;;;;;;47.47;6.77;;;7.30;92.50;;;;;;4973391;28;20182;-91
2022/01/17 07:49:19;;;;;;;38.93;6.50;;;7.30;92.60;;;;;;4973372;28;20179;-91
2022/01/17 07:51:46;;;;;;;41.33;7.40;;;7.30;92.80;;;;;;4973455;28;20175;-91
2022/01/17 07:54:15;;;;;;;31.17;6.00;;;7.30;92.70;;;;;;4973220;28;20202;-91
2022/01/17 07:56:42;;;;;;;25.97;5.23;;;7.30;92.90;;;;;;4974518;28;20175;-92
2022/01/17 07:59:09;;;;;;;37.23;5.50;;;7.30;93.10;;;;;;4973350;28;20202;-91
2022/01/17 08:01:37;;;;;;;30.70;6.47;;;7.30;93.10;;;;;;4973383;28;20274;-91
2022/01/17 08:04:03;;;;;;;24.57;6.17;;;7.50;92.40;;;;;;4973298;28;20371;-91
2022/01/17 08:06:29;;;;;;;43.33;6.20;;;7.50;92.40;;;;;;4977116;28;20261;-91
2022/01/17 08:08:55;;;;;;;33.47;5.67;;;7.50;92.40;;;;;;4977230;28;20181;-91
2022/01/17 08:11:21;;;;;;;29.53;5.87;;;7.50;92.40;;;;;;4977914;28;20178;-90
2022/01/17 08:13:47;;;;;;;24.10;3.80;;;7.50;92.50;;;;;;4977939;28;20201;-91
2022/01/17 08:16:14;;;;;;;32.70;6.93;;;7.50;92.60;;;;;;4978274;28;20209;-91
2022/01/17 08:18:41;;;;;;;27.80;6.37;;;7.40;92.80;;;;;;4977878;28;20209;-91
2022/01/17 08:21:07;;;;;;;40.10;6.80;;;7.40;92.90;;;;;;4977542;28;20179;-91
2022/01/17 08:23:32;;;;;;;40.07;7.13;;;7.50;92.80;;;;;;4977603;28;20214;-91
2022/01/17 08:25:58;;;;;;;47.37;7.60;;;7.50;92.60;;;;;;4977915;28;20187;-91
2022/01/17 08:28:24;;;;;;;23.47;5.70;;;7.50;92.80;;;;;;4977751;28;20185;-91
2022/01/17 08:30:50;;;;;;;17.43;4.57;;;7.40;93.00;;;;;;4977709;28;20175;-91
2022/01/17 08:33:15;;;;;;;18.73;4.30;;;7.30;93.30;;;;;;4979380;28;20174;-91
2022/01/17 08:35:41;;;;;;;29.70;6.07;;;7.40;93.60;;;;;;4978195;28;20182;-91
2022/01/17 08:38:07;;;;;;;39.90;7.00;;;7.30;93.80;;;;;;4977758;28;20257;-91
2022/01/17 08:40:32;;;;;;;40.47;6.60;;;7.50;93.50;;;;;;4977649;28;20666;-91
2022/01/17 08:42:58;;;;;;;47.60;7.13;;;7.40;93.20;;;;;;4977472;28;20175;-91
2022/01/17 08:45:24;;;;;;;38.43;6.87;;;7.50;92.90;;;;;;4977145;28;20201;-91
2022/01/17 08:47:52;;;;;;;43.73;7.87;;;7.50;92.80;;;;;;4977276;28;20182;-91
2022/01/17 08:50:20;;;;;;;36.20;8.27;;;7.40;92.90;;;;;;4977019;28;20277;-91
2022/01/17 08:52:47;;;;;;;46.87;8.00;;;7.40;92.90;;;;;;4977200;28;20273;-91
2022/01/17 08:55:14;;;;;;;48.73;9.13;;;7.40;92.90;;;;;;4976868;28;20653;-90
2022/01/17 08:57:40;;;;;;;46.23;8.67;;;7.40;92.90;;;;;;4976783;28;20207;-91
2022/01/17 09:00:10;;;;;;;46.27;7.00;;;7.40;92.90;;;;;;4976766;28;20269;-91
2022/01/17 09:02:35;;;;;;;48.80;8.93;;;7.30;93.00;;;;;;4976481;28;20182;-90
2022/01/17 09:05:01;;;;;;;62.37;10.83;;;7.30;93.10;;;;;;4976542;28;20191;-90
2022/01/17 09:07:27;;;;;;;43.63;8.57;;;7.30;93.10;;;;;;4976426;28;20182;-91
2022/01/17 09:09:53;;;;;;;38.93;7.60;;;7.30;93.20;;;;;;4976550;28;20182;-91
2022/01/17 09:12:19;;;;;;;42.67;8.00;;;7.30;93.20;;;;;;4976591;28;20175;-90
2022/01/17 09:14:44;;;;;;;54.97;8.20;;;7.30;93.20;;;;;;4976333;28;20213;-90
2022/01/17 09:17:11;;;;;;;43.83;8.00;;;7.30;93.20;;;;;;4975619;28;20271;-90
2022/01/17 09:19:38;;;;;;;27.27;5.97;;;7.30;93.10;;;;;;4976478;28;20193;-90
2022/01/17 09:22:06;;;;;;;39.83;6.93;;;7.30;93.00;;;;;;4976172;28;20197;-91
2022/01/17 09:24:32;;;;;;;43.43;6.70;;;7.30;92.90;;;;;;4976286;28;20194;-90
2022/01/17 09:26:58;;;;;;;44.77;7.43;;;7.30;92.90;;;;;;4976223;28;20174;-90
2022/01/17 09:29:24;;;;;;;37.03;6.63;;;7.30;92.80;;;;;;4976222;28;20559;-90
2022/01/17 09:31:49;;;;;;;36.27;6.07;;;7.30;92.70;;;;;;4976122;28;20210;-90
2022/01/17 09:34:15;;;;;;;33.87;6.53;;;7.40;92.50;;;;;;4976081;28;20226;-90
2022/01/17 09:36:41;;;;;;;32.90;5.80;;;7.30;92.20;;;;;;4975882;28;20181;-90
2022/01/17 09:39:07;;;;;;;46.10;8.20;;;7.50;92.20;;;;;;4976829;28;20229;-90
2022/01/17 09:41:33;;;;;;;38.67;6.20;;;7.50;92.00;;;;;;4975756;28;20206;-90
2022/01/17 09:44:01;;;;;;;34.23;6.57;;;7.40;91.40;;;;;;4975726;28;20542;-90
2022/01/17 09:46:33;;;;;;;35.90;6.67;;;7.30;91.10;;;;;;4975923;28;20217;-90
2022/01/17 09:49:13;;;;;;;32.60;6.07;;;7.30;90.90;;;;;;4975565;28;20175;-90
2022/01/17 09:52:05;;;;;;;29.97;5.47;;;7.30;90.70;;;;;;4975712;28;20185;-91
2022/01/17 09:54:36;;;;;;;20.67;5.20;;;7.30;90.20;;;;;;4976671;28;20206;-91
2022/01/17 09:57:08;;;;;;;23.03;4.70;;;7.30;89.70;;;;;;4975423;28;20187;-91
2022/01/17 09:59:37;;;;;;;24.43;4.47;;;7.20;88.90;;;;;;4976105;28;20177;-91
2022/01/17 10:02:04;;;;;;;21.33;5.10;;;7.20;88.90;;;;;;4976005;28;20178;-90
2022/01/17 10:04:30;;;;;;;23.20;4.63;;;7.20;88.30;;;;;;4975586;28;20200;-91
2022/01/17 10:06:58;;;;;;;18.97;4.60;;;7.20;88.50;;;;;;4975760;28;20175;-90
2022/01/17 10:09:25;;;;;;;18.30;4.43;;;7.20;87.80;;;;;;4975581;28;20229;-90
2022/01/17 10:12:09;;;;;;;19.30;5.27;;;7.30;88.10;;;;;;4975762;28;20178;-91
2022/01/17 10:14:42;;;;;;;22.47;4.23;;;7.20;87.60;;;;;;4975321;28;20194;-91
2022/01/17 10:17:16;;;;;;;28.47;4.30;;;7.20;87.60;;;;;;4975312;28;20206;-91
2022/01/17 10:19:43;;;;;;;27.17;3.77;;;7.20;87.60;;;;;;4979296;28;20215;-94
2022/01/17 10:22:16;;;;;;;25.47;4.70;;;7.20;87.50;;;;;;4981351;28;20190;-94
2022/01/17 10:25:05;;;;;;;22.47;4.03;;;7.10;87.20;;;;;;4976117;28;20215;-93
2022/01/17 10:28:10;;;;;;;20.67;4.77;;;7.20;87.20;;;;;;4976794;28;20548;-94
2022/01/17 10:31:08;;;;;;;25.67;4.70;;;7.10;87.00;;;;;;4976075;28;20178;-93
2022/01/17 10:36:16;;;;;;;21.63;4.23;;;7.30;86.30;;;;;;4976875;28;20242;-90
2022/01/17 10:38:42;;;;;;;25.63;4.10;;;7.30;86.30;;;;;;4975031;28;20683;-90
2022/01/17 10:41:07;;;;;;;32.87;5.60;;;7.40;86.80;;;;;;4974572;28;20175;-91
2022/01/17 10:43:38;;;;;;;24.73;4.40;;;7.50;86.40;;;;;;4975315;28;20286;-91
2022/01/17 10:46:06;;;;;;;26.33;5.20;;;7.50;86.30;;;;;;4974817;28;20190;-91
2022/01/17 10:48:45;;;;;;;24.57;4.33;;;7.50;86.00;;;;;;4974369;28;20186;-91
2022/01/17 10:51:13;;;;;;;26.60;4.40;;;7.60;85.80;;;;;;4974407;28;20205;-90
2022/01/17 10:53:41;;;;;;;24.70;4.20;;;7.40;85.80;;;;;;4974381;28;20210;-91
2022/01/17 10:56:13;;;;;;;24.43;4.43;;;7.40;85.80;;;;;;4975271;28;20205;-92
2022/01/17 10:58:39;;;;;;;27.03;4.67;;;7.30;86.50;;;;;;4974194;28;20198;-90
2022/01/17 11:01:11;;;;;;;33.23;4.77;;;7.30;86.30;;;;;;4974178;28;20558;-90
2022/01/17 11:03:38;;;;;;;23.33;4.70;;;7.30;86.40;;;;;;4974053;28;20573;-90
2022/01/17 11:06:07;;;;;;;27.27;5.83;;;7.30;86.40;;;;;;4975635;28;20195;-91
2022/01/17 11:08:34;;;;;;;28.53;5.60;;;7.20;86.40;;;;;;4975251;28;20253;-90
2022/01/17 11:11:05;;;;;;;24.20;5.23;;;7.20;86.60;;;;;;4974083;28;20721;-91
2022/01/17 11:13:33;;;;;;;31.60;5.73;;;7.10;86.70;;;;;;4973987;28;20233;-91
2022/01/17 11:16:04;;;;;;;27.90;5.43;;;7.20;86.90;;;;;;4973969;28;20705;-90
2022/01/17 11:18:30;;;;;;;24.83;5.97;;;7.00;87.10;;;;;;4974039;28;20289;-91
2022/01/17 11:20:59;;;;;;;15.57;5.07;;;7.00;86.80;;;;;;4975257;28;20643;-91
2022/01/17 11:23:26;;;;;;;32.43;5.50;;;6.80;85.10;;;;;;4974362;28;20214;-91
2022/01/17 11:25:55;;;;;;;25.30;4.73;;;6.70;83.70;;;;;;4974067;28;20175;-92
2022/01/17 11:28:29;;;;;;;20.80;4.80;;;6.60;83.30;;;;;;4973814;28;20190;-91
2022/01/17 11:30:58;;;;;;;21.40;4.37;;;6.60;83.30;;;;;;4974966;28;20170;-91
2022/01/17 11:33:24;;;;;;;27.77;5.10;;;6.50;82.70;;;;;;4974778;28;20258;-91
2022/01/17 11:35:53;;;;;;;33.13;5.87;;;6.50;83.30;;;;;;4973862;28;20266;-90
2022/01/17 11:38:24;;;;;;;19.33;4.93;;;6.60;82.90;;;;;;4973858;28;20207;-91
2022/01/17 11:40:50;;;;;;;19.97;4.47;;;6.50;83.40;;;;;;4973175;28;20653;-91
2022/01/17 11:43:36;;;;;;;21.97;5.13;;;6.50;83.80;;;;;;4975275;28;20174;-91
2022/01/17 11:46:17;;;;;;;18.00;4.23;;;6.60;83.30;;;;;;4973775;28;20167;-91
2022/01/17 11:48:51;;;;;;;27.43;5.60;;;6.50;84.00;;;;;;4973774;28;20182;-91
2022/01/17 11:51:17;;;;;;;25.17;4.53;;;6.60;84.00;;;;;;4974185;28;20179;-90
2022/01/17 11:53:49;;;;;;;22.63;5.10;;;6.50;83.90;;;;;;4973546;28;20275;-91
2022/01/17 11:56:34;;;;;;;21.97;4.50;;;6.50;83.60;;;;;;4973503;28;20640;-90
2022/01/17 11:58:59;;;;;;;28.40;5.33;;;6.60;83.90;;;;;;4974743;28;20222;-91
2022/01/17 12:01:25;;;;;;;29.03;5.37;;;6.60;82.80;;;;;;4973593;28;20175;-91
2022/01/17 12:03:54;;;;;;;31.53;5.63;;;6.70;82.90;;;;;;4973420;28;20214;-91
2022/01/17 12:06:32;;;;;;;30.20;5.57;;;6.80;82.50;;;;;;4973697;28;20178;-91
2022/01/17 12:09:23;;;;;;;29.27;6.10;;;6.80;83.00;;;;;;4973680;28;20170;-91
2022/01/17 12:12:07;;;;;;;29.20;5.23;;;6.80;82.10;;;;;;4973961;28;20702;-91
2022/01/17 12:14:40;;;;;;;27.40;5.37;;;6.80;82.40;;;;;;4973323;28;20289;-90
2022/01/17 12:17:25;;;;;;;48.47;6.77;;;6.80;80.40;;;;;;4973492;28;20179;-88
2022/01/17 12:20:03;;;;;;;33.33;6.23;;;6.70;80.50;;;;;;4973748;28;20643;-91
2022/01/17 12:22:50;;;;;;;31.63;6.13;;;6.70;80.20;;;;;;4974469;28;20709;-90
2022/01/17 12:25:26;;;;;;;32.17;7.13;;;6.70;79.90;;;;;;4973140;28;20195;-90
2022/01/17 12:28:18;;;;;;;29.03;6.00;;;6.70;79.90;;;;;;4973401;28;20182;-91
2022/01/17 12:30:53;;;;;;;38.90;6.00;;;6.60;79.80;;;;;;4973083;28;20178;-90
2022/01/17 12:33:28;;;;;;;43.37;7.13;;;6.50;79.40;;;;;;4973307;28;20251;-90
2022/01/17 12:35:59;;;;;;;23.63;6.00;;;6.50;79.70;;;;;;4973254;28;20179;-91
2022/01/17 12:38:39;;;;;;;46.03;7.50;;;6.50;80.10;;;;;;4973123;28;20226;-91
2022/01/17 12:41:06;;;;;;;34.33;6.77;;;6.50;79.90;;;;;;4973153;28;20174;-91
2022/01/17 12:43:34;;;;;;;47.37;8.07;;;6.60;79.40;;;;;;4973971;28;20226;-90
2022/01/17 12:45:59;;;;;;;37.60;6.60;;;6.60;79.30;;;;;;4972961;28;20266;-91
2022/01/17 12:48:27;;;;;;;35.43;6.30;;;6.60;78.40;;;;;;4972874;28;20265;-90
2022/01/17 12:50:55;;;;;;;31.60;7.00;;;6.50;78.60;;;;;;4974505;28;20190;-90
2022/01/17 12:53:24;;;;;;;35.37;5.80;;;6.50;78.00;;;;;;4976565;28;20673;-90
2022/01/17 12:55:52;;;;;;;40.90;6.90;;;6.40;78.00;;;;;;4976465;28;20188;-90
2022/01/17 12:58:20;;;;;;;47.40;6.43;;;6.50;76.70;;;;;;4976900;28;20658;-90
2022/01/17 13:01:16;;;;;;;37.73;6.60;;;6.40;77.90;;;;;;4976457;28;20179;-90
2022/01/17 13:03:46;;;;;;;35.20;6.43;;;6.30;78.40;;;;;;4975895;28;20257;-90
2022/01/17 13:06:16;;;;;;;38.93;6.67;;;6.30;77.30;;;;;;4977768;28;20623;-90
2022/01/17 13:08:46;;;;;;;32.13;6.30;;;6.30;77.50;;;;;;4976495;28;20733;-90
2022/01/17 13:11:22;;;;;;;30.07;6.57;;;6.30;76.90;;;;;;4977545;28;20193;-90
2022/01/17 13:13:52;;;;;;;43.60;7.20;;;6.30;75.70;;;;;;4976901;28;20282;-90
2022/01/17 13:16:22;;;;;;;40.87;6.50;;;6.30;76.20;;;;;;4976355;28;20193;-90